Miltona, Minnesota
Current Conditions -  °F | °C
As of 11:53 AM on Monday 24 Nov 2014 (Local Time) from KAXN Reporting Station
Haze Haze  
Wind Chill: -20°   Ceiling: 1900
Heat Index: -11°   Visibility: 5mi
Dew Point: -15°   Wind: 15mph
Humidity: 73%   Direction: 320°NW
Pressure: 29.58"   Gusts: 30mph
Location:  46.04°N, 95.29°W
Report Text: KAXN 241753Z AUTO 32013G26KT 5SM HZ OVC019 M11/M15 A2958 RMK AO2 PK WND 33027/1737 SNE36 SLP044 P0000 60000 T11111150 11094 21117 53012
Loading
Personal Weather Stations






























Interactive Weather Map New forecast layout! Learn more

10-Day Weather Forecast

Advertisements
Track Severe Weather on mobile